UAL1207 KSFO-KPWM
Flight info
| Callsign | UAL1207 |
|---|---|
| Flight time | 4h 56m |
| Altitude | 37000 |
| Route | TRUKN2 TIPRE Q126 INSLO DTA J148 MTU J24 CHE CYS J148 MCW J16 BAE J68 DABJU/N0445F390 J68 FNT Q818 IKNAV Q935 AUDIL Q84 CAM CDOGG4 |
| Aircraft | B38M/M-SDE1FGHILORVWXY/HB1 |
Departure
| Time | 2026-04-11 02:21 |
|---|---|
| Airport | San Francisco International Airport (KSFO) |
Arrival
| Time | 2026-04-11 07:17 |
|---|---|
| Airport | Portland International Jetport (KPWM) |
| Time | Latitude | Longitude | Altitude | Speed | Heading |
|---|---|---|---|---|---|
| 2026-04-11 01:18 | 37.61931 | -122.38497 | 24 ft | 0 kts | 119° |
| 2026-04-11 02:11 | 37.61933 | -122.38501 | 23 ft | 3 kts | 119° |
| 2026-04-11 02:12 | 37.61946 | -122.38530 | 26 ft | 4 kts | 119° |
| 2026-04-11 02:12 | 37.61959 | -122.38560 | 27 ft | 4 kts | 119° |
| 2026-04-11 02:12 | 37.61970 | -122.38584 | 27 ft | 1 kts | 119° |
| 2026-04-11 02:12 | 37.61968 | -122.38565 | 26 ft | 4 kts | 79° |
| 2026-04-11 02:13 | 37.61983 | -122.38548 | 23 ft | 2 kts | 27° |
| 2026-04-11 02:13 | 37.62004 | -122.38535 | 27 ft | 4 kts | 28° |
| 2026-04-11 02:13 | 37.62021 | -122.38524 | 24 ft | 0 kts | 28° |
| 2026-04-11 02:15 | 37.62022 | -122.38523 | 24 ft | 1 kts | 28° |
| 2026-04-11 02:15 | 37.62035 | -122.38514 | 24 ft | 4 kts | 28° |
| 2026-04-11 02:15 | 37.62066 | -122.38474 | 23 ft | 10 kts | 71° |
| 2026-04-11 02:16 | 37.62032 | -122.38359 | 24 ft | 17 kts | 118° |
| 2026-04-11 02:16 | 37.61973 | -122.38219 | 25 ft | 19 kts | 118° |
| 2026-04-11 02:16 | 37.61909 | -122.38068 | 27 ft | 20 kts | 118° |
| 2026-04-11 02:16 | 37.61844 | -122.37910 | 23 ft | 21 kts | 116° |
| 2026-04-11 02:17 | 37.61788 | -122.37735 | 24 ft | 22 kts | 111° |
| 2026-04-11 02:17 | 37.61731 | -122.37552 | 24 ft | 23 kts | 112° |
| 2026-04-11 02:17 | 37.61661 | -122.37371 | 24 ft | 22 kts | 118° |
| 2026-04-11 02:17 | 37.61592 | -122.37209 | 24 ft | 21 kts | 118° |
| 2026-04-11 02:18 | 37.61521 | -122.37039 | 24 ft | 22 kts | 117° |
| 2026-04-11 02:18 | 37.61434 | -122.36878 | 27 ft | 23 kts | 133° |
| 2026-04-11 02:18 | 37.61340 | -122.36717 | 25 ft | 23 kts | 118° |
| 2026-04-11 02:18 | 37.61262 | -122.36535 | 23 ft | 24 kts | 117° |
| 2026-04-11 02:19 | 37.61187 | -122.36354 | 23 ft | 24 kts | 117° |
| 2026-04-11 02:19 | 37.61110 | -122.36170 | 24 ft | 24 kts | 118° |
| 2026-04-11 02:19 | 37.61052 | -122.36013 | 23 ft | 18 kts | 98° |
| 2026-04-11 02:19 | 37.61116 | -122.35892 | 23 ft | 18 kts | 27° |
| 2026-04-11 02:20 | 37.61218 | -122.35946 | 23 ft | 20 kts | 297° |
| 2026-04-11 02:20 | 37.61346 | -122.36256 | 23 ft | 76 kts | 297° |
| 2026-04-11 02:20 | 37.61712 | -122.37126 | 24 ft | 147 kts | 298° |
| 2026-04-11 02:20 | 37.62279 | -122.38451 | 237 ft | 185 kts | 297° |
| 2026-04-11 02:21 | 37.62921 | -122.39926 | 1053 ft | 195 kts | 296° |
| 2026-04-11 02:21 | 37.63701 | -122.41375 | 1934 ft | 210 kts | 313° |
| 2026-04-11 02:21 | 37.65056 | -122.42324 | 2501 ft | 239 kts | 351° |
| 2026-04-11 02:21 | 37.66729 | -122.41997 | 3163 ft | 261 kts | 29° |
| 2026-04-11 02:22 | 37.68685 | -122.38279 | 5177 ft | 263 kts | 81° |
| 2026-04-11 02:22 | 37.68932 | -122.35917 | 5885 ft | 278 kts | 85° |
| 2026-04-11 02:22 | 37.69207 | -122.33467 | 6764 ft | 284 kts | 83° |
| 2026-04-11 02:23 | 37.69600 | -122.30959 | 7681 ft | 289 kts | 79° |
| 2026-04-11 02:23 | 37.70082 | -122.28516 | 8603 ft | 294 kts | 77° |
| 2026-04-11 02:23 | 37.70653 | -122.26012 | 9492 ft | 298 kts | 75° |
| 2026-04-11 02:23 | 37.70722 | -122.25725 | 9594 ft | 299 kts | 75° |
| 2026-04-11 02:24 | 37.71290 | -122.23442 | 10345 ft | 304 kts | 74° |
| 2026-04-11 02:24 | 37.72091 | -122.20888 | 10778 ft | 325 kts | 62° |
| 2026-04-11 02:24 | 37.73344 | -122.18411 | 11190 ft | 343 kts | 58° |
| 2026-04-11 02:24 | 37.74673 | -122.15838 | 11711 ft | 355 kts | 58° |
| 2026-04-11 02:25 | 37.76030 | -122.13216 | 12553 ft | 357 kts | 58° |
| 2026-04-11 02:25 | 37.77400 | -122.10567 | 13298 ft | 363 kts | 58° |
| 2026-04-11 02:25 | 37.78784 | -122.07891 | 14045 ft | 365 kts | 58° |
| 2026-04-11 02:25 | 37.80182 | -122.05186 | 14698 ft | 369 kts | 59° |
| 2026-04-11 02:26 | 37.81591 | -122.02457 | 15392 ft | 372 kts | 59° |
| 2026-04-11 02:26 | 37.82919 | -121.99634 | 16025 ft | 374 kts | 67° |
| 2026-04-11 02:26 | 37.84049 | -121.96654 | 16657 ft | 378 kts | 66° |
| 2026-04-11 02:26 | 37.85216 | -121.93658 | 17296 ft | 382 kts | 66° |
| 2026-04-11 02:27 | 37.86405 | -121.90637 | 17918 ft | 386 kts | 65° |
| 2026-04-11 02:27 | 37.87614 | -121.87587 | 18491 ft | 389 kts | 65° |
| 2026-04-11 02:27 | 37.88834 | -121.84514 | 19030 ft | 392 kts | 65° |
| 2026-04-11 02:27 | 37.90063 | -121.81419 | 19578 ft | 394 kts | 65° |
| 2026-04-11 02:28 | 37.91299 | -121.78303 | 20092 ft | 397 kts | 66° |
| 2026-04-11 02:28 | 37.92527 | -121.75204 | 20609 ft | 400 kts | 66° |
| 2026-04-11 02:28 | 37.93778 | -121.72047 | 21134 ft | 402 kts | 66° |
| 2026-04-11 02:28 | 37.95037 | -121.68868 | 21651 ft | 405 kts | 66° |
| 2026-04-11 02:29 | 37.96301 | -121.65669 | 22167 ft | 407 kts | 66° |
| 2026-04-11 02:29 | 37.97574 | -121.62448 | 22673 ft | 410 kts | 66° |
| 2026-04-11 02:29 | 37.98854 | -121.59203 | 23173 ft | 413 kts | 66° |
| 2026-04-11 02:29 | 38.00140 | -121.55940 | 23631 ft | 415 kts | 66° |
| 2026-04-11 02:30 | 38.01014 | -121.53721 | 23904 ft | 417 kts | 66° |
| 2026-04-11 02:30 | 38.02294 | -121.50466 | 24266 ft | 420 kts | 67° |
| 2026-04-11 02:30 | 38.03599 | -121.47144 | 24675 ft | 422 kts | 68° |
| 2026-04-11 02:30 | 38.04912 | -121.43799 | 25052 ft | 424 kts | 68° |
| 2026-04-11 02:31 | 38.06230 | -121.40438 | 25435 ft | 427 kts | 68° |
| 2026-04-11 02:31 | 38.07556 | -121.37044 | 25770 ft | 430 kts | 68° |
| 2026-04-11 02:31 | 38.08889 | -121.33644 | 26170 ft | 432 kts | 68° |
| 2026-04-11 02:31 | 38.10228 | -121.30219 | 26509 ft | 435 kts | 68° |
| 2026-04-11 02:32 | 38.11574 | -121.26772 | 26877 ft | 437 kts | 68° |
| 2026-04-11 02:32 | 38.12926 | -121.23307 | 27206 ft | 439 kts | 68° |
| 2026-04-11 02:32 | 38.14286 | -121.19816 | 27561 ft | 441 kts | 68° |
| 2026-04-11 02:32 | 38.15648 | -121.16313 | 27901 ft | 443 kts | 68° |
| 2026-04-11 02:33 | 38.17017 | -121.12793 | 28251 ft | 446 kts | 68° |
| 2026-04-11 02:33 | 38.18391 | -121.09256 | 28591 ft | 448 kts | 68° |
| 2026-04-11 02:33 | 38.19769 | -121.05699 | 28924 ft | 449 kts | 69° |
| 2026-04-11 02:33 | 38.20785 | -121.01985 | 29223 ft | 441 kts | 84° |
| 2026-04-11 02:34 | 38.21322 | -120.98143 | 29503 ft | 444 kts | 84° |
| 2026-04-11 02:34 | 38.21902 | -120.94270 | 29745 ft | 447 kts | 85° |
| 2026-04-11 02:34 | 38.22467 | -120.90368 | 29944 ft | 451 kts | 85° |
| 2026-04-11 02:34 | 38.23028 | -120.86435 | 30233 ft | 452 kts | 85° |
| 2026-04-11 02:35 | 38.23587 | -120.82488 | 30445 ft | 456 kts | 85° |
| 2026-04-11 02:35 | 38.24142 | -120.78560 | 30667 ft | 458 kts | 85° |
| 2026-04-11 02:35 | 38.24705 | -120.74565 | 30890 ft | 460 kts | 85° |
| 2026-04-11 02:35 | 38.25271 | -120.70542 | 31118 ft | 463 kts | 85° |
| 2026-04-11 02:36 | 38.25838 | -120.66497 | 31340 ft | 465 kts | 85° |
| 2026-04-11 02:36 | 38.26406 | -120.62434 | 31546 ft | 468 kts | 85° |
| 2026-04-11 02:36 | 38.26975 | -120.58350 | 31798 ft | 470 kts | 85° |
| 2026-04-11 02:36 | 38.27544 | -120.54262 | 32104 ft | 470 kts | 85° |
| 2026-04-11 02:37 | 38.28113 | -120.50158 | 32390 ft | 471 kts | 84° |
| 2026-04-11 02:37 | 38.28682 | -120.46051 | 32670 ft | 471 kts | 84° |
| 2026-04-11 02:37 | 38.29249 | -120.41940 | 32953 ft | 472 kts | 84° |
| 2026-04-11 02:37 | 38.29815 | -120.37823 | 33215 ft | 472 kts | 84° |
| 2026-04-11 02:38 | 38.30380 | -120.33705 | 33491 ft | 473 kts | 84° |
| 2026-04-11 02:38 | 38.30946 | -120.29576 | 33745 ft | 474 kts | 84° |
| 2026-04-11 02:38 | 38.31510 | -120.25442 | 33994 ft | 475 kts | 84° |
| 2026-04-11 02:38 | 38.32074 | -120.21297 | 34215 ft | 475 kts | 84° |
| 2026-04-11 02:39 | 38.32636 | -120.17154 | 34443 ft | 475 kts | 84° |
| 2026-04-11 02:39 | 38.33198 | -120.13010 | 34701 ft | 475 kts | 84° |
| 2026-04-11 02:39 | 38.33756 | -120.08872 | 34966 ft | 473 kts | 84° |
| 2026-04-11 02:39 | 38.34310 | -120.04757 | 35338 ft | 470 kts | 84° |
| 2026-04-11 02:40 | 38.34861 | -120.00650 | 35544 ft | 470 kts | 84° |
| 2026-04-11 02:40 | 38.35411 | -119.96542 | 35741 ft | 471 kts | 84° |
| 2026-04-11 02:40 | 38.35960 | -119.92431 | 35900 ft | 472 kts | 83° |
| 2026-04-11 02:40 | 38.36510 | -119.88301 | 36082 ft | 473 kts | 83° |
| 2026-04-11 02:41 | 38.37058 | -119.84172 | 36270 ft | 473 kts | 83° |
| 2026-04-11 02:41 | 38.37607 | -119.80036 | 36417 ft | 474 kts | 84° |
| 2026-04-11 02:41 | 38.38145 | -119.75948 | 36564 ft | 474 kts | 84° |
| 2026-04-11 02:41 | 38.38692 | -119.71802 | 36689 ft | 476 kts | 84° |
| 2026-04-11 02:42 | 38.39239 | -119.67629 | 36783 ft | 476 kts | 84° |
| 2026-04-11 02:42 | 38.39785 | -119.63471 | 36905 ft | 476 kts | 85° |
| 2026-04-11 02:42 | 38.40329 | -119.59302 | 36860 ft | 477 kts | 84° |
| 2026-04-11 02:43 | 38.41411 | -119.50964 | 36872 ft | 476 kts | 84° |
| 2026-04-11 02:43 | 38.42488 | -119.42636 | 36832 ft | 475 kts | 84° |
| 2026-04-11 02:44 | 38.43557 | -119.34318 | 36806 ft | 475 kts | 84° |
| 2026-04-11 02:44 | 38.44621 | -119.25989 | 36821 ft | 476 kts | 84° |
| 2026-04-11 02:45 | 38.45675 | -119.17688 | 36795 ft | 473 kts | 84° |
| 2026-04-11 02:45 | 38.46723 | -119.09384 | 36781 ft | 474 kts | 84° |
| 2026-04-11 02:46 | 38.47766 | -119.01074 | 36780 ft | 474 kts | 84° |
| 2026-04-11 02:46 | 38.48797 | -118.92821 | 36772 ft | 474 kts | 85° |
| 2026-04-11 02:47 | 38.49834 | -118.84456 | 36788 ft | 474 kts | 85° |
| 2026-04-11 02:47 | 38.50851 | -118.76205 | 36793 ft | 473 kts | 85° |
| 2026-04-11 02:48 | 38.51870 | -118.67897 | 36766 ft | 473 kts | 85° |
| 2026-04-11 02:48 | 38.52881 | -118.59595 | 36790 ft | 474 kts | 85° |
| 2026-04-11 02:49 | 38.53887 | -118.51276 | 36783 ft | 473 kts | 85° |
| 2026-04-11 02:49 | 38.54888 | -118.42976 | 36782 ft | 473 kts | 85° |
| 2026-04-11 02:50 | 38.55884 | -118.34669 | 36765 ft | 473 kts | 86° |
| 2026-04-11 02:50 | 38.56872 | -118.26378 | 36787 ft | 472 kts | 86° |
| 2026-04-11 02:51 | 38.57847 | -118.18088 | 36805 ft | 472 kts | 86° |
| 2026-04-11 02:51 | 38.58822 | -118.09792 | 36806 ft | 472 kts | 86° |
| 2026-04-11 02:52 | 38.59789 | -118.01516 | 36816 ft | 470 kts | 86° |
| 2026-04-11 02:52 | 38.60746 | -117.93271 | 36804 ft | 469 kts | 86° |
| 2026-04-11 02:53 | 38.61697 | -117.85031 | 36812 ft | 469 kts | 86° |
| 2026-04-11 02:53 | 38.62642 | -117.76788 | 36823 ft | 469 kts | 86° |
| 2026-04-11 02:54 | 38.63583 | -117.68532 | 36833 ft | 469 kts | 86° |
| 2026-04-11 02:54 | 38.64511 | -117.60330 | 36829 ft | 469 kts | 86° |
| 2026-04-11 02:55 | 38.65439 | -117.52081 | 36825 ft | 469 kts | 86° |
| 2026-04-11 02:55 | 38.66361 | -117.43832 | 36808 ft | 468 kts | 86° |
| 2026-04-11 02:56 | 38.67278 | -117.35584 | 36819 ft | 468 kts | 86° |
| 2026-04-11 02:56 | 38.68347 | -117.27362 | 36818 ft | 470 kts | 83° |
| 2026-04-11 02:57 | 38.69616 | -117.19156 | 36812 ft | 470 kts | 84° |
| 2026-04-11 02:57 | 38.70850 | -117.10950 | 36818 ft | 470 kts | 84° |
| 2026-04-11 02:58 | 38.72079 | -117.02724 | 36817 ft | 470 kts | 84° |
| 2026-04-11 02:58 | 38.73305 | -116.94485 | 36828 ft | 472 kts | 84° |
| 2026-04-11 02:59 | 38.74527 | -116.86226 | 36785 ft | 472 kts | 84° |
| 2026-04-11 02:59 | 38.75745 | -116.77943 | 36817 ft | 474 kts | 84° |
| 2026-04-11 03:00 | 38.76958 | -116.69658 | 36846 ft | 474 kts | 84° |
| 2026-04-11 03:00 | 38.78160 | -116.61410 | 36819 ft | 474 kts | 84° |
| 2026-04-11 03:01 | 38.79363 | -116.53108 | 36769 ft | 474 kts | 84° |
| 2026-04-11 03:01 | 38.80560 | -116.44800 | 36828 ft | 475 kts | 84° |
| 2026-04-11 03:02 | 38.81751 | -116.36495 | 36820 ft | 473 kts | 84° |
| 2026-04-11 03:02 | 38.82936 | -116.28190 | 36809 ft | 473 kts | 84° |
| 2026-04-11 03:03 | 38.84115 | -116.19878 | 36825 ft | 474 kts | 85° |
| 2026-04-11 03:03 | 38.85289 | -116.11563 | 36787 ft | 473 kts | 85° |
| 2026-04-11 03:04 | 38.86456 | -116.03249 | 36803 ft | 474 kts | 85° |
| 2026-04-11 03:04 | 38.87618 | -115.94923 | 36769 ft | 474 kts | 85° |
| 2026-04-11 03:05 | 38.88773 | -115.86607 | 36791 ft | 473 kts | 85° |
| 2026-04-11 03:05 | 38.89921 | -115.78296 | 36791 ft | 472 kts | 85° |
| 2026-04-11 03:06 | 38.91063 | -115.69982 | 36788 ft | 473 kts | 85° |
| 2026-04-11 03:06 | 38.92198 | -115.61674 | 36771 ft | 472 kts | 85° |
| 2026-04-11 03:07 | 38.93321 | -115.53407 | 36793 ft | 469 kts | 85° |
| 2026-04-11 03:07 | 38.94427 | -115.45219 | 36785 ft | 469 kts | 85° |
| 2026-04-11 03:08 | 38.96089 | -115.32829 | 36776 ft | 470 kts | 85° |
| 2026-04-11 03:08 | 38.97187 | -115.24595 | 36795 ft | 466 kts | 85° |
| 2026-04-11 03:09 | 38.98276 | -115.16373 | 36799 ft | 467 kts | 85° |
| 2026-04-11 03:09 | 38.99360 | -115.08144 | 36789 ft | 467 kts | 85° |
| 2026-04-11 03:10 | 39.00438 | -114.99917 | 36798 ft | 467 kts | 85° |
| 2026-04-11 03:10 | 39.01510 | -114.91692 | 36834 ft | 466 kts | 85° |
| 2026-04-11 03:11 | 39.02574 | -114.83474 | 36835 ft | 466 kts | 86° |
| 2026-04-11 03:11 | 39.03634 | -114.75247 | 36846 ft | 466 kts | 86° |
| 2026-04-11 03:12 | 39.04686 | -114.67026 | 36840 ft | 466 kts | 86° |
| 2026-04-11 03:12 | 39.05734 | -114.58797 | 36822 ft | 466 kts | 86° |
| 2026-04-11 03:13 | 39.06776 | -114.50565 | 36819 ft | 466 kts | 86° |
| 2026-04-11 03:13 | 39.07812 | -114.42329 | 36805 ft | 466 kts | 86° |
| 2026-04-11 03:14 | 39.08842 | -114.34095 | 36798 ft | 465 kts | 86° |
| 2026-04-11 03:14 | 39.09866 | -114.25865 | 36792 ft | 465 kts | 86° |
| 2026-04-11 03:15 | 39.10882 | -114.17642 | 36807 ft | 465 kts | 86° |
| 2026-04-11 03:15 | 39.11891 | -114.09426 | 36790 ft | 465 kts | 86° |
| 2026-04-11 03:16 | 39.12891 | -114.01242 | 36789 ft | 467 kts | 86° |
| 2026-04-11 03:16 | 39.13898 | -113.92951 | 36790 ft | 468 kts | 86° |
| 2026-04-11 03:17 | 39.14896 | -113.84674 | 36782 ft | 467 kts | 87° |
| 2026-04-11 03:17 | 39.15889 | -113.76394 | 36792 ft | 468 kts | 87° |
| 2026-04-11 03:18 | 39.16878 | -113.68099 | 36782 ft | 470 kts | 86° |
| 2026-04-11 03:18 | 39.17865 | -113.59767 | 36805 ft | 471 kts | 87° |
| 2026-04-11 03:19 | 39.18845 | -113.51436 | 36788 ft | 469 kts | 87° |
| 2026-04-11 03:19 | 39.19654 | -113.44522 | 36793 ft | 470 kts | 87° |
| 2026-04-11 03:20 | 39.20626 | -113.36184 | 36769 ft | 470 kts | 87° |
| 2026-04-11 03:20 | 39.21589 | -113.27830 | 36785 ft | 472 kts | 87° |
| 2026-04-11 03:21 | 39.22548 | -113.19478 | 36788 ft | 471 kts | 87° |
| 2026-04-11 03:21 | 39.23503 | -113.11114 | 36789 ft | 471 kts | 87° |
| 2026-04-11 03:22 | 39.24450 | -113.02755 | 36785 ft | 471 kts | 87° |
| 2026-04-11 03:22 | 39.25394 | -112.94383 | 36776 ft | 471 kts | 87° |
| 2026-04-11 03:23 | 39.26326 | -112.86067 | 36780 ft | 471 kts | 87° |
| 2026-04-11 03:23 | 39.27259 | -112.77694 | 36757 ft | 471 kts | 87° |
| 2026-04-11 03:24 | 39.28185 | -112.69327 | 36778 ft | 471 kts | 88° |
| 2026-04-11 03:24 | 39.29108 | -112.60944 | 36784 ft | 471 kts | 88° |
| 2026-04-11 03:25 | 39.30043 | -112.52570 | 36792 ft | 473 kts | 84° |
| 2026-04-11 03:25 | 39.31055 | -112.48495 | 36779 ft | 481 kts | 69° |
| 2026-04-11 03:25 | 39.32512 | -112.44600 | 36787 ft | 484 kts | 69° |
| 2026-04-11 03:26 | 39.35389 | -112.36728 | 36810 ft | 485 kts | 69° |
| 2026-04-11 03:26 | 39.38285 | -112.28859 | 36811 ft | 485 kts | 69° |
| 2026-04-11 03:27 | 39.41176 | -112.20989 | 36794 ft | 484 kts | 69° |
| 2026-04-11 03:27 | 39.44060 | -112.13114 | 36828 ft | 485 kts | 69° |
| 2026-04-11 03:28 | 39.46923 | -112.05276 | 36824 ft | 485 kts | 69° |
| 2026-04-11 03:28 | 39.49801 | -111.97378 | 36827 ft | 485 kts | 69° |
| 2026-04-11 03:29 | 39.52672 | -111.89476 | 36838 ft | 485 kts | 69° |
| 2026-04-11 03:29 | 39.55540 | -111.81564 | 36839 ft | 485 kts | 69° |
| 2026-04-11 03:30 | 39.58402 | -111.73645 | 36853 ft | 486 kts | 69° |
| 2026-04-11 03:30 | 39.61265 | -111.65701 | 36839 ft | 486 kts | 69° |
| 2026-04-11 03:31 | 39.64128 | -111.57737 | 36842 ft | 487 kts | 69° |
| 2026-04-11 03:31 | 39.66982 | -111.49777 | 36877 ft | 487 kts | 69° |
| 2026-04-11 03:32 | 39.69832 | -111.41805 | 36874 ft | 486 kts | 69° |
| 2026-04-11 03:32 | 39.72674 | -111.33835 | 36871 ft | 486 kts | 69° |
| 2026-04-11 03:33 | 39.75509 | -111.25861 | 36891 ft | 486 kts | 69° |
| 2026-04-11 03:33 | 39.78338 | -111.17882 | 36901 ft | 486 kts | 70° |
| 2026-04-11 03:34 | 39.81147 | -111.09938 | 36909 ft | 487 kts | 69° |
| 2026-04-11 03:34 | 39.83972 | -111.01928 | 36901 ft | 486 kts | 70° |
| 2026-04-11 03:35 | 39.86791 | -110.93913 | 36919 ft | 488 kts | 70° |
| 2026-04-11 03:35 | 39.89604 | -110.85890 | 36916 ft | 487 kts | 69° |
| 2026-04-11 03:36 | 39.92409 | -110.77868 | 36906 ft | 487 kts | 70° |
| 2026-04-11 03:36 | 39.95213 | -110.69829 | 36898 ft | 487 kts | 70° |
| 2026-04-11 03:37 | 39.98009 | -110.61788 | 36901 ft | 487 kts | 70° |
| 2026-04-11 03:37 | 40.00802 | -110.53731 | 36888 ft | 487 kts | 70° |
| 2026-04-11 03:38 | 40.03590 | -110.45672 | 36838 ft | 487 kts | 70° |
| 2026-04-11 03:38 | 40.06383 | -110.37571 | 36874 ft | 491 kts | 70° |
| 2026-04-11 03:39 | 40.09182 | -110.29439 | 36846 ft | 490 kts | 70° |
| 2026-04-11 03:39 | 40.11973 | -110.21306 | 36854 ft | 491 kts | 70° |
| 2026-04-11 03:40 | 40.14792 | -110.13173 | 36815 ft | 492 kts | 69° |
| 2026-04-11 03:40 | 40.17067 | -110.04829 | 36792 ft | 482 kts | 87° |
| 2026-04-11 03:41 | 40.17265 | -110.00545 | 36833 ft | 468 kts | 98° |
| 2026-04-11 03:41 | 40.17317 | -109.96326 | 36783 ft | 478 kts | 89° |
| 2026-04-11 03:41 | 40.18506 | -109.87729 | 36803 ft | 482 kts | 86° |
| 2026-04-11 03:42 | 40.19712 | -109.79111 | 36792 ft | 483 kts | 85° |
| 2026-04-11 03:42 | 40.20930 | -109.70457 | 36809 ft | 484 kts | 85° |
| 2026-04-11 03:43 | 40.22144 | -109.61790 | 36886 ft | 484 kts | 86° |
| 2026-04-11 03:43 | 40.23350 | -109.53127 | 36905 ft | 484 kts | 86° |
| 2026-04-11 03:44 | 40.24551 | -109.44457 | 36883 ft | 484 kts | 86° |
| 2026-04-11 03:44 | 40.25749 | -109.35760 | 36897 ft | 487 kts | 86° |
| 2026-04-11 03:45 | 40.26942 | -109.27045 | 36872 ft | 486 kts | 86° |
| 2026-04-11 03:45 | 40.28128 | -109.18329 | 36862 ft | 486 kts | 86° |
| 2026-04-11 03:46 | 40.29308 | -109.09612 | 36838 ft | 487 kts | 86° |
| 2026-04-11 03:46 | 40.30486 | -109.00849 | 36845 ft | 489 kts | 86° |
| 2026-04-11 03:47 | 40.31658 | -108.92076 | 36847 ft | 488 kts | 86° |
| 2026-04-11 03:47 | 40.32817 | -108.83363 | 36844 ft | 488 kts | 86° |
| 2026-04-11 03:48 | 40.33976 | -108.74591 | 36841 ft | 489 kts | 86° |
| 2026-04-11 03:48 | 40.35132 | -108.65781 | 36860 ft | 490 kts | 86° |
| 2026-04-11 03:49 | 40.36281 | -108.56979 | 36868 ft | 490 kts | 86° |
| 2026-04-11 03:49 | 40.37423 | -108.48171 | 36861 ft | 490 kts | 86° |
| 2026-04-11 03:50 | 40.38558 | -108.39365 | 36862 ft | 490 kts | 86° |
| 2026-04-11 03:50 | 40.39687 | -108.30550 | 36863 ft | 490 kts | 86° |
| 2026-04-11 03:51 | 40.40809 | -108.21730 | 36874 ft | 490 kts | 86° |
| 2026-04-11 03:51 | 40.41926 | -108.12901 | 36868 ft | 490 kts | 86° |
| 2026-04-11 03:52 | 40.43034 | -108.04086 | 36880 ft | 490 kts | 86° |
| 2026-04-11 03:52 | 40.44136 | -107.95261 | 36884 ft | 490 kts | 86° |
| 2026-04-11 03:53 | 40.45231 | -107.86436 | 36898 ft | 489 kts | 86° |
| 2026-04-11 03:53 | 40.46319 | -107.77611 | 36989 ft | 489 kts | 86° |
| 2026-04-11 03:54 | 40.47400 | -107.68780 | 37038 ft | 490 kts | 86° |
| 2026-04-11 03:54 | 40.48475 | -107.59946 | 37070 ft | 490 kts | 86° |
| 2026-04-11 03:55 | 40.49546 | -107.51102 | 37066 ft | 489 kts | 86° |
| 2026-04-11 03:55 | 40.50609 | -107.42263 | 37064 ft | 490 kts | 86° |
| 2026-04-11 03:56 | 40.51668 | -107.33411 | 37103 ft | 493 kts | 86° |
| 2026-04-11 03:56 | 40.52438 | -107.28992 | 37075 ft | 500 kts | 73° |
| 2026-04-11 03:56 | 40.53693 | -107.24730 | 37122 ft | 501 kts | 73° |
| 2026-04-11 03:57 | 40.56118 | -107.16129 | 37108 ft | 502 kts | 73° |
| 2026-04-11 03:57 | 40.58564 | -107.07524 | 37037 ft | 502 kts | 73° |
| 2026-04-11 03:58 | 40.60989 | -106.98980 | 37058 ft | 504 kts | 73° |
| 2026-04-11 03:58 | 40.63433 | -106.90332 | 37007 ft | 503 kts | 73° |
| 2026-04-11 03:59 | 40.65866 | -106.81700 | 37087 ft | 503 kts | 73° |
| 2026-04-11 03:59 | 40.68298 | -106.73045 | 37053 ft | 504 kts | 73° |
| 2026-04-11 04:00 | 40.70717 | -106.64400 | 37022 ft | 500 kts | 73° |
| 2026-04-11 04:00 | 40.73126 | -106.55766 | 36965 ft | 502 kts | 73° |
| 2026-04-11 04:01 | 40.75523 | -106.47141 | 36960 ft | 501 kts | 73° |
| 2026-04-11 04:01 | 40.77916 | -106.38504 | 36943 ft | 500 kts | 73° |
| 2026-04-11 04:02 | 40.80300 | -106.29871 | 36930 ft | 501 kts | 73° |
| 2026-04-11 04:02 | 40.82678 | -106.21228 | 36936 ft | 501 kts | 73° |
| 2026-04-11 04:03 | 40.85050 | -106.12580 | 36940 ft | 502 kts | 73° |
| 2026-04-11 04:03 | 40.87421 | -106.03906 | 36924 ft | 502 kts | 73° |
| 2026-04-11 04:04 | 40.89789 | -105.95209 | 36930 ft | 503 kts | 73° |
| 2026-04-11 04:04 | 40.92153 | -105.86499 | 36958 ft | 504 kts | 73° |
| 2026-04-11 04:05 | 40.94515 | -105.77764 | 36971 ft | 505 kts | 73° |
| 2026-04-11 04:05 | 40.96873 | -105.69017 | 36973 ft | 504 kts | 73° |
| 2026-04-11 04:06 | 40.99221 | -105.60274 | 36994 ft | 504 kts | 73° |
| 2026-04-11 04:06 | 41.01168 | -105.53000 | 37014 ft | 505 kts | 73° |
| 2026-04-11 04:07 | 41.03511 | -105.44221 | 37026 ft | 505 kts | 73° |
| 2026-04-11 04:07 | 41.05845 | -105.35443 | 37025 ft | 505 kts | 73° |
| 2026-04-11 04:08 | 41.08170 | -105.26668 | 37017 ft | 505 kts | 73° |
| 2026-04-11 04:08 | 41.10490 | -105.17878 | 37037 ft | 505 kts | 73° |
| 2026-04-11 04:09 | 41.12806 | -105.09074 | 37033 ft | 505 kts | 73° |
| 2026-04-11 04:09 | 41.15111 | -105.00281 | 37042 ft | 505 kts | 73° |
| 2026-04-11 04:10 | 41.17412 | -104.91480 | 37132 ft | 505 kts | 72° |
| 2026-04-11 04:10 | 41.19714 | -104.82646 | 37126 ft | 507 kts | 72° |
| 2026-04-11 04:11 | 41.21884 | -104.73819 | 37126 ft | 506 kts | 75° |
| 2026-04-11 04:11 | 41.24003 | -104.64839 | 37115 ft | 506 kts | 74° |
| 2026-04-11 04:12 | 41.26100 | -104.55971 | 37099 ft | 506 kts | 75° |
| 2026-04-11 04:12 | 41.28203 | -104.47043 | 37096 ft | 506 kts | 75° |
| 2026-04-11 04:13 | 41.30299 | -104.38110 | 37064 ft | 506 kts | 75° |
| 2026-04-11 04:13 | 41.32389 | -104.29171 | 37079 ft | 506 kts | 75° |
| 2026-04-11 04:14 | 41.34470 | -104.20232 | 37087 ft | 506 kts | 74° |
| 2026-04-11 04:14 | 41.36551 | -104.11255 | 37091 ft | 508 kts | 74° |
| 2026-04-11 04:15 | 41.39663 | -103.97769 | 37104 ft | 508 kts | 74° |
| 2026-04-11 04:16 | 41.41729 | -103.88770 | 37114 ft | 508 kts | 75° |
| 2026-04-11 04:16 | 41.43790 | -103.79755 | 37117 ft | 509 kts | 74° |
| 2026-04-11 04:17 | 41.45849 | -103.70714 | 37111 ft | 510 kts | 74° |
| 2026-04-11 04:17 | 41.47887 | -103.61728 | 37103 ft | 510 kts | 74° |
| 2026-04-11 04:18 | 41.49934 | -103.52664 | 37087 ft | 510 kts | 75° |
| 2026-04-11 04:18 | 41.51976 | -103.43590 | 37087 ft | 511 kts | 74° |
| 2026-04-11 04:19 | 41.54016 | -103.34482 | 37105 ft | 513 kts | 74° |
| 2026-04-11 04:19 | 41.56052 | -103.25353 | 37104 ft | 512 kts | 74° |
| 2026-04-11 04:20 | 41.58077 | -103.16241 | 37123 ft | 512 kts | 74° |
| 2026-04-11 04:20 | 41.60099 | -103.07109 | 37123 ft | 513 kts | 73° |
| 2026-04-11 04:21 | 41.62114 | -102.97971 | 37140 ft | 513 kts | 73° |
| 2026-04-11 04:21 | 41.64100 | -102.88889 | 37151 ft | 513 kts | 74° |
| 2026-04-11 04:22 | 41.66095 | -102.79732 | 37150 ft | 513 kts | 74° |
| 2026-04-11 04:22 | 41.68081 | -102.70578 | 37152 ft | 512 kts | 73° |
| 2026-04-11 04:23 | 41.70056 | -102.61439 | 37156 ft | 511 kts | 73° |
| 2026-04-11 04:23 | 41.72023 | -102.52294 | 37160 ft | 511 kts | 73° |
| 2026-04-11 04:24 | 41.73983 | -102.43144 | 37164 ft | 511 kts | 73° |
| 2026-04-11 04:24 | 41.75938 | -102.33982 | 37166 ft | 512 kts | 73° |
| 2026-04-11 04:25 | 41.77886 | -102.24811 | 37167 ft | 512 kts | 73° |
| 2026-04-11 04:25 | 41.79825 | -102.15638 | 37176 ft | 512 kts | 73° |
| 2026-04-11 04:26 | 41.81760 | -102.06450 | 37170 ft | 512 kts | 73° |
| 2026-04-11 04:26 | 41.83686 | -101.97262 | 37181 ft | 513 kts | 73° |
| 2026-04-11 04:27 | 41.85610 | -101.88038 | 37180 ft | 513 kts | 73° |
| 2026-04-11 04:27 | 41.87527 | -101.78812 | 37177 ft | 513 kts | 73° |
| 2026-04-11 04:28 | 41.89424 | -101.69640 | 37186 ft | 513 kts | 73° |
| 2026-04-11 04:28 | 41.91329 | -101.60391 | 37183 ft | 514 kts | 73° |
| 2026-04-11 04:29 | 41.93226 | -101.51139 | 37193 ft | 514 kts | 73° |
| 2026-04-11 04:29 | 41.95115 | -101.41877 | 37193 ft | 514 kts | 73° |
| 2026-04-11 04:30 | 41.96998 | -101.32609 | 37200 ft | 514 kts | 73° |
| 2026-04-11 04:30 | 41.98871 | -101.23345 | 37195 ft | 513 kts | 73° |
| 2026-04-11 04:31 | 42.00736 | -101.14083 | 37197 ft | 513 kts | 73° |
| 2026-04-11 04:31 | 42.02590 | -101.04827 | 37199 ft | 513 kts | 73° |
| 2026-04-11 04:32 | 42.04439 | -100.95561 | 37208 ft | 513 kts | 73° |
| 2026-04-11 04:32 | 42.06278 | -100.86294 | 37222 ft | 513 kts | 73° |
| 2026-04-11 04:33 | 42.08110 | -100.77026 | 37229 ft | 512 kts | 73° |
| 2026-04-11 04:33 | 42.09935 | -100.67747 | 37230 ft | 513 kts | 73° |
| 2026-04-11 04:34 | 42.11751 | -100.58470 | 37235 ft | 513 kts | 73° |
| 2026-04-11 04:34 | 42.13551 | -100.49236 | 37260 ft | 514 kts | 73° |
| 2026-04-11 04:35 | 42.15362 | -100.39894 | 37236 ft | 516 kts | 73° |
| 2026-04-11 04:35 | 42.17169 | -100.30530 | 37237 ft | 516 kts | 73° |
| 2026-04-11 04:36 | 42.18969 | -100.21167 | 37250 ft | 516 kts | 73° |
| 2026-04-11 04:36 | 42.20759 | -100.11800 | 37255 ft | 515 kts | 73° |
| 2026-04-11 04:37 | 42.22541 | -100.02434 | 37255 ft | 516 kts | 73° |
| 2026-04-11 04:37 | 42.24315 | -99.93064 | 37257 ft | 515 kts | 73° |
| 2026-04-11 04:38 | 42.26082 | -99.83686 | 37259 ft | 515 kts | 73° |
| 2026-04-11 04:38 | 42.27839 | -99.74316 | 37260 ft | 514 kts | 73° |
| 2026-04-11 04:39 | 42.29586 | -99.64954 | 37268 ft | 514 kts | 73° |
| 2026-04-11 04:39 | 42.31325 | -99.55584 | 37269 ft | 514 kts | 73° |
| 2026-04-11 04:40 | 42.33059 | -99.46202 | 37271 ft | 514 kts | 73° |
| 2026-04-11 04:40 | 42.34782 | -99.36826 | 37282 ft | 513 kts | 73° |
| 2026-04-11 04:41 | 42.36495 | -99.27464 | 37285 ft | 513 kts | 73° |
| 2026-04-11 04:41 | 42.38201 | -99.18086 | 37293 ft | 513 kts | 73° |
| 2026-04-11 04:42 | 42.39900 | -99.08710 | 37304 ft | 513 kts | 73° |
| 2026-04-11 04:42 | 42.41590 | -98.99345 | 37289 ft | 512 kts | 73° |
| 2026-04-11 04:43 | 42.43259 | -98.90053 | 37291 ft | 512 kts | 73° |
| 2026-04-11 04:43 | 42.44934 | -98.80681 | 37284 ft | 512 kts | 73° |
| 2026-04-11 04:44 | 42.46601 | -98.71309 | 37292 ft | 512 kts | 73° |
| 2026-04-11 04:44 | 42.47936 | -98.61843 | 37292 ft | 511 kts | 77° |
| 2026-04-11 04:45 | 42.49251 | -98.52368 | 37290 ft | 511 kts | 76° |
| 2026-04-11 04:45 | 42.50571 | -98.42896 | 37328 ft | 512 kts | 77° |
| 2026-04-11 04:46 | 42.51885 | -98.33418 | 37347 ft | 511 kts | 76° |
| 2026-04-11 04:46 | 42.53187 | -98.23964 | 37335 ft | 509 kts | 77° |
| 2026-04-11 04:47 | 42.54480 | -98.14518 | 37346 ft | 510 kts | 77° |
| 2026-04-11 04:47 | 42.55765 | -98.05065 | 37351 ft | 510 kts | 77° |
| 2026-04-11 04:48 | 42.57043 | -97.95608 | 37384 ft | 510 kts | 77° |
| 2026-04-11 04:48 | 42.58310 | -97.86161 | 37364 ft | 507 kts | 77° |
| 2026-04-11 04:49 | 42.59567 | -97.76738 | 37366 ft | 508 kts | 77° |
| 2026-04-11 04:49 | 42.60817 | -97.67297 | 37374 ft | 508 kts | 77° |
| 2026-04-11 04:50 | 42.62051 | -97.57924 | 37385 ft | 508 kts | 77° |
| 2026-04-11 04:50 | 42.63283 | -97.48500 | 37374 ft | 507 kts | 77° |
| 2026-04-11 04:51 | 42.64507 | -97.39072 | 37382 ft | 507 kts | 77° |
| 2026-04-11 04:51 | 42.65723 | -97.29643 | 37370 ft | 507 kts | 77° |
| 2026-04-11 04:52 | 42.66931 | -97.20215 | 37356 ft | 507 kts | 77° |
| 2026-04-11 04:52 | 42.68132 | -97.10772 | 37353 ft | 507 kts | 77° |
| 2026-04-11 04:53 | 42.69325 | -97.01333 | 37337 ft | 507 kts | 77° |
| 2026-04-11 04:53 | 42.70510 | -96.91895 | 37341 ft | 507 kts | 77° |
| 2026-04-11 04:54 | 42.71688 | -96.82443 | 37349 ft | 507 kts | 77° |
| 2026-04-11 04:54 | 42.72856 | -96.72999 | 37348 ft | 506 kts | 77° |
| 2026-04-11 04:55 | 42.74017 | -96.63557 | 37356 ft | 506 kts | 78° |
| 2026-04-11 04:55 | 42.75169 | -96.54114 | 37363 ft | 506 kts | 78° |
| 2026-04-11 04:56 | 42.76122 | -96.46257 | 37371 ft | 506 kts | 77° |
| 2026-04-11 04:56 | 42.77262 | -96.36794 | 37349 ft | 506 kts | 78° |
| 2026-04-11 04:57 | 42.78393 | -96.27336 | 37347 ft | 506 kts | 78° |
| 2026-04-11 04:57 | 42.79517 | -96.17863 | 37346 ft | 507 kts | 78° |
| 2026-04-11 04:58 | 42.80633 | -96.08395 | 37362 ft | 507 kts | 78° |
| 2026-04-11 04:58 | 42.81741 | -95.98918 | 37362 ft | 507 kts | 78° |
| 2026-04-11 04:59 | 42.82842 | -95.89434 | 37364 ft | 507 kts | 78° |
| 2026-04-11 04:59 | 42.83936 | -95.79944 | 37372 ft | 507 kts | 78° |
| 2026-04-11 05:00 | 42.85014 | -95.70518 | 37386 ft | 507 kts | 78° |
| 2026-04-11 05:00 | 42.86093 | -95.61017 | 37383 ft | 507 kts | 78° |
| 2026-04-11 05:01 | 42.87162 | -95.51519 | 37381 ft | 507 kts | 78° |
| 2026-04-11 05:01 | 42.88225 | -95.42015 | 37378 ft | 507 kts | 78° |
| 2026-04-11 05:02 | 42.89280 | -95.32507 | 37410 ft | 507 kts | 78° |
| 2026-04-11 05:02 | 42.90326 | -95.22994 | 37406 ft | 506 kts | 78° |
| 2026-04-11 05:03 | 42.91362 | -95.13509 | 37399 ft | 505 kts | 78° |
| 2026-04-11 05:03 | 42.92390 | -95.04036 | 37400 ft | 505 kts | 78° |
| 2026-04-11 05:04 | 42.93405 | -94.94621 | 37416 ft | 505 kts | 78° |
| 2026-04-11 05:04 | 42.94418 | -94.85153 | 37420 ft | 504 kts | 78° |
| 2026-04-11 05:05 | 42.95914 | -94.70960 | 37429 ft | 504 kts | 79° |
| 2026-04-11 05:05 | 42.96893 | -94.61488 | 37410 ft | 504 kts | 78° |
| 2026-04-11 05:06 | 42.97872 | -94.52010 | 37403 ft | 503 kts | 78° |
| 2026-04-11 05:06 | 42.98839 | -94.42570 | 37380 ft | 502 kts | 78° |
| 2026-04-11 05:07 | 42.99799 | -94.33121 | 37373 ft | 502 kts | 79° |
| 2026-04-11 05:07 | 43.00751 | -94.23670 | 37380 ft | 502 kts | 79° |
| 2026-04-11 05:08 | 43.01696 | -94.14211 | 37383 ft | 502 kts | 79° |
| 2026-04-11 05:08 | 43.02631 | -94.04761 | 37394 ft | 502 kts | 79° |
| 2026-04-11 05:09 | 43.03559 | -93.95310 | 37408 ft | 502 kts | 79° |
| 2026-04-11 05:09 | 43.04473 | -93.85919 | 37417 ft | 502 kts | 79° |
| 2026-04-11 05:10 | 43.05386 | -93.76458 | 37430 ft | 502 kts | 79° |
| 2026-04-11 05:10 | 43.06289 | -93.67006 | 37406 ft | 502 kts | 79° |
| 2026-04-11 05:11 | 43.07187 | -93.57536 | 37399 ft | 502 kts | 79° |
| 2026-04-11 05:11 | 43.08075 | -93.48075 | 37388 ft | 502 kts | 79° |
| 2026-04-11 05:12 | 43.08959 | -93.38603 | 37383 ft | 502 kts | 79° |
| 2026-04-11 05:12 | 43.09560 | -93.29088 | 37400 ft | 504 kts | 84° |
| 2026-04-11 05:13 | 43.09823 | -93.19498 | 37383 ft | 504 kts | 85° |
| 2026-04-11 05:13 | 43.10062 | -93.09908 | 37394 ft | 504 kts | 85° |
| 2026-04-11 05:14 | 43.10292 | -93.00322 | 37407 ft | 504 kts | 85° |
| 2026-04-11 05:14 | 43.10513 | -92.90779 | 37406 ft | 505 kts | 85° |
| 2026-04-11 05:15 | 43.10727 | -92.81181 | 37396 ft | 505 kts | 85° |
| 2026-04-11 05:15 | 43.10933 | -92.71576 | 37396 ft | 505 kts | 85° |
| 2026-04-11 05:16 | 43.11131 | -92.61977 | 37399 ft | 505 kts | 85° |
| 2026-04-11 05:16 | 43.11321 | -92.52373 | 37396 ft | 505 kts | 85° |
| 2026-04-11 05:17 | 43.11503 | -92.42763 | 37401 ft | 505 kts | 85° |
| 2026-04-11 05:17 | 43.11677 | -92.33158 | 37409 ft | 505 kts | 85° |
| 2026-04-11 05:18 | 43.11843 | -92.23549 | 37419 ft | 506 kts | 85° |
| 2026-04-11 05:18 | 43.12001 | -92.13923 | 37428 ft | 506 kts | 85° |
| 2026-04-11 05:19 | 43.12150 | -92.04359 | 37424 ft | 506 kts | 86° |
| 2026-04-11 05:19 | 43.12292 | -91.94735 | 37427 ft | 506 kts | 86° |
| 2026-04-11 05:20 | 43.12427 | -91.85098 | 37401 ft | 507 kts | 86° |
| 2026-04-11 05:20 | 43.12553 | -91.75458 | 37386 ft | 507 kts | 86° |
| 2026-04-11 05:21 | 43.12671 | -91.65811 | 37390 ft | 507 kts | 86° |
| 2026-04-11 05:21 | 43.12781 | -91.56166 | 37397 ft | 507 kts | 86° |
| 2026-04-11 05:22 | 43.12883 | -91.46514 | 37409 ft | 507 kts | 86° |
| 2026-04-11 05:22 | 43.12977 | -91.36852 | 37413 ft | 508 kts | 86° |
| 2026-04-11 05:23 | 43.13066 | -91.27187 | 37412 ft | 508 kts | 86° |
| 2026-04-11 05:23 | 43.13145 | -91.17517 | 37405 ft | 508 kts | 86° |
| 2026-04-11 05:24 | 43.13210 | -91.07847 | 37407 ft | 509 kts | 86° |
| 2026-04-11 05:24 | 43.13271 | -90.98165 | 37411 ft | 509 kts | 86° |
| 2026-04-11 05:25 | 43.13324 | -90.88482 | 37418 ft | 509 kts | 86° |
| 2026-04-11 05:25 | 43.13369 | -90.78788 | 37411 ft | 509 kts | 86° |
| 2026-04-11 05:26 | 43.13406 | -90.69154 | 37417 ft | 510 kts | 86° |
| 2026-04-11 05:26 | 43.13435 | -90.59450 | 37409 ft | 510 kts | 86° |
| 2026-04-11 05:27 | 43.13455 | -90.49743 | 37415 ft | 510 kts | 86° |
| 2026-04-11 05:27 | 43.13468 | -90.40034 | 37415 ft | 510 kts | 86° |
| 2026-04-11 05:28 | 43.13471 | -90.30320 | 37419 ft | 511 kts | 86° |
| 2026-04-11 05:28 | 43.13467 | -90.20595 | 37411 ft | 511 kts | 86° |
| 2026-04-11 05:29 | 43.13454 | -90.10868 | 37411 ft | 511 kts | 86° |
| 2026-04-11 05:29 | 43.13433 | -90.01152 | 37415 ft | 511 kts | 86° |
| 2026-04-11 05:30 | 43.13404 | -89.91417 | 37421 ft | 512 kts | 86° |
| 2026-04-11 05:30 | 43.13367 | -89.81676 | 37415 ft | 512 kts | 87° |
| 2026-04-11 05:31 | 43.13321 | -89.71934 | 37416 ft | 512 kts | 87° |
| 2026-04-11 05:31 | 43.13267 | -89.62183 | 37405 ft | 512 kts | 87° |
| 2026-04-11 05:32 | 43.13205 | -89.52447 | 37399 ft | 512 kts | 87° |
| 2026-04-11 05:32 | 43.13135 | -89.42705 | 37394 ft | 512 kts | 87° |
| 2026-04-11 05:33 | 43.13057 | -89.32965 | 37393 ft | 512 kts | 87° |
| 2026-04-11 05:33 | 43.12968 | -89.23224 | 37421 ft | 512 kts | 87° |
| 2026-04-11 05:34 | 43.12873 | -89.13527 | 37413 ft | 513 kts | 87° |
| 2026-04-11 05:34 | 43.12769 | -89.03751 | 37418 ft | 513 kts | 87° |
| 2026-04-11 05:35 | 43.12656 | -88.93971 | 37414 ft | 513 kts | 87° |
| 2026-04-11 05:35 | 43.12535 | -88.84202 | 37422 ft | 514 kts | 87° |
| 2026-04-11 05:36 | 43.12405 | -88.74417 | 37413 ft | 515 kts | 87° |
| 2026-04-11 05:36 | 43.12267 | -88.64610 | 37413 ft | 515 kts | 88° |
| 2026-04-11 05:37 | 43.12121 | -88.54811 | 37417 ft | 515 kts | 88° |
| 2026-04-11 05:37 | 43.11967 | -88.45010 | 37459 ft | 515 kts | 88° |
| 2026-04-11 05:38 | 43.11804 | -88.35186 | 37433 ft | 516 kts | 88° |
| 2026-04-11 05:38 | 43.11856 | -88.25387 | 37437 ft | 513 kts | 82° |
| 2026-04-11 05:39 | 43.12312 | -88.15629 | 37430 ft | 513 kts | 82° |
| 2026-04-11 05:39 | 43.12777 | -88.05882 | 37462 ft | 514 kts | 82° |
| 2026-04-11 05:40 | 43.13235 | -87.96123 | 37438 ft | 514 kts | 82° |
| 2026-04-11 05:40 | 43.13683 | -87.86419 | 37439 ft | 514 kts | 82° |
| 2026-04-11 05:41 | 43.14125 | -87.76652 | 37440 ft | 514 kts | 82° |
| 2026-04-11 05:41 | 43.14559 | -87.66876 | 37432 ft | 514 kts | 82° |
| 2026-04-11 05:42 | 43.14985 | -87.57091 | 37436 ft | 515 kts | 82° |
| 2026-04-11 05:42 | 43.15403 | -87.47314 | 37441 ft | 515 kts | 82° |
| 2026-04-11 05:43 | 43.15812 | -87.37530 | 37441 ft | 515 kts | 82° |
| 2026-04-11 05:43 | 43.16213 | -87.27737 | 37449 ft | 515 kts | 82° |
| 2026-04-11 05:44 | 43.16606 | -87.17953 | 37444 ft | 515 kts | 83° |
| 2026-04-11 05:44 | 43.16991 | -87.08155 | 37441 ft | 515 kts | 83° |
| 2026-04-11 05:45 | 43.17367 | -86.98362 | 37441 ft | 515 kts | 83° |
| 2026-04-11 05:45 | 43.17735 | -86.88562 | 37445 ft | 515 kts | 83° |
| 2026-04-11 05:46 | 43.18095 | -86.78746 | 37441 ft | 516 kts | 83° |
| 2026-04-11 05:46 | 43.18446 | -86.68939 | 37445 ft | 516 kts | 83° |
| 2026-04-11 05:47 | 43.18732 | -86.60783 | 37432 ft | 515 kts | 83° |
| 2026-04-11 05:47 | 43.19122 | -86.49368 | 37436 ft | 516 kts | 83° |
| 2026-04-11 05:48 | 43.19451 | -86.39541 | 37653 ft | 517 kts | 83° |
| 2026-04-11 05:48 | 43.19561 | -86.36212 | 37829 ft | 517 kts | 83° |
| 2026-04-11 05:48 | 43.19721 | -86.31293 | 38062 ft | 517 kts | 83° |
| 2026-04-11 05:49 | 43.19765 | -86.26365 | 38280 ft | 520 kts | 92° |
| 2026-04-11 05:49 | 43.19357 | -86.21431 | 38518 ft | 520 kts | 94° |
| 2026-04-11 05:49 | 43.18963 | -86.16491 | 38718 ft | 521 kts | 94° |
| 2026-04-11 05:49 | 43.18564 | -86.11560 | 38916 ft | 522 kts | 94° |
| 2026-04-11 05:50 | 43.18165 | -86.06680 | 39115 ft | 522 kts | 94° |
| 2026-04-11 05:50 | 43.17757 | -86.01741 | 39279 ft | 521 kts | 94° |
| 2026-04-11 05:50 | 43.17349 | -85.96817 | 39420 ft | 521 kts | 94° |
| 2026-04-11 05:50 | 43.16937 | -85.91870 | 39453 ft | 522 kts | 94° |
| 2026-04-11 05:51 | 43.16109 | -85.82009 | 39436 ft | 520 kts | 94° |
| 2026-04-11 05:51 | 43.15273 | -85.72156 | 39442 ft | 521 kts | 94° |
| 2026-04-11 05:52 | 43.14428 | -85.62298 | 39416 ft | 521 kts | 94° |
| 2026-04-11 05:52 | 43.13575 | -85.52456 | 39454 ft | 521 kts | 94° |
| 2026-04-11 05:53 | 43.12714 | -85.42619 | 39454 ft | 520 kts | 94° |
| 2026-04-11 05:53 | 43.11844 | -85.32772 | 39438 ft | 521 kts | 95° |
| 2026-04-11 05:54 | 43.10965 | -85.22932 | 39437 ft | 521 kts | 95° |
| 2026-04-11 05:54 | 43.10078 | -85.13095 | 39440 ft | 521 kts | 95° |
| 2026-04-11 05:55 | 43.09182 | -85.03257 | 39453 ft | 521 kts | 95° |
| 2026-04-11 05:55 | 43.08278 | -84.93417 | 39437 ft | 522 kts | 95° |
| 2026-04-11 05:56 | 43.07364 | -84.83576 | 39433 ft | 522 kts | 95° |
| 2026-04-11 05:56 | 43.06448 | -84.73794 | 39431 ft | 522 kts | 95° |
| 2026-04-11 05:57 | 43.05517 | -84.63952 | 39446 ft | 522 kts | 95° |
| 2026-04-11 05:57 | 43.04576 | -84.54098 | 39435 ft | 523 kts | 95° |
| 2026-04-11 05:58 | 43.03626 | -84.44236 | 39435 ft | 523 kts | 95° |
| 2026-04-11 05:58 | 43.02668 | -84.34382 | 39431 ft | 523 kts | 95° |
| 2026-04-11 05:59 | 43.01700 | -84.24525 | 39432 ft | 523 kts | 95° |
| 2026-04-11 05:59 | 43.00724 | -84.14664 | 39431 ft | 523 kts | 96° |
| 2026-04-11 06:00 | 42.99740 | -84.04810 | 39430 ft | 524 kts | 96° |
| 2026-04-11 06:00 | 42.98747 | -83.94956 | 39431 ft | 524 kts | 96° |
| 2026-04-11 06:01 | 42.97749 | -83.85109 | 39426 ft | 524 kts | 96° |
| 2026-04-11 06:01 | 42.96790 | -83.75252 | 39414 ft | 522 kts | 90° |
| 2026-04-11 06:02 | 42.97152 | -83.65443 | 39410 ft | 519 kts | 83° |
| 2026-04-11 06:02 | 42.97601 | -83.55622 | 39425 ft | 519 kts | 82° |
| 2026-04-11 06:03 | 42.98060 | -83.45846 | 39419 ft | 519 kts | 83° |
| 2026-04-11 06:03 | 42.98515 | -83.36011 | 39414 ft | 519 kts | 83° |
| 2026-04-11 06:04 | 42.98961 | -83.26171 | 39414 ft | 519 kts | 83° |
| 2026-04-11 06:04 | 42.99400 | -83.16321 | 39415 ft | 519 kts | 83° |
| 2026-04-11 06:05 | 42.99830 | -83.06474 | 39414 ft | 520 kts | 83° |
| 2026-04-11 06:05 | 43.00252 | -82.96608 | 39415 ft | 520 kts | 83° |
| 2026-04-11 06:06 | 43.00869 | -82.81811 | 39435 ft | 520 kts | 83° |
| 2026-04-11 06:07 | 43.01270 | -82.71937 | 39422 ft | 521 kts | 83° |
| 2026-04-11 06:07 | 43.01663 | -82.62054 | 39425 ft | 521 kts | 83° |
| 2026-04-11 06:08 | 43.02049 | -82.52157 | 39424 ft | 521 kts | 83° |
| 2026-04-11 06:08 | 43.02427 | -82.42263 | 39413 ft | 521 kts | 83° |
| 2026-04-11 06:09 | 43.02790 | -82.32431 | 39415 ft | 522 kts | 83° |
| 2026-04-11 06:09 | 43.03149 | -82.22517 | 39414 ft | 522 kts | 84° |
| 2026-04-11 06:10 | 43.03500 | -82.12607 | 39417 ft | 522 kts | 84° |
| 2026-04-11 06:10 | 43.03842 | -82.02698 | 39424 ft | 522 kts | 84° |
| 2026-04-11 06:11 | 43.04176 | -81.92783 | 39423 ft | 522 kts | 84° |
| 2026-04-11 06:11 | 43.04501 | -81.82871 | 39430 ft | 522 kts | 84° |
| 2026-04-11 06:12 | 43.04818 | -81.72949 | 39422 ft | 522 kts | 84° |
| 2026-04-11 06:12 | 43.05125 | -81.63033 | 39425 ft | 522 kts | 84° |
| 2026-04-11 06:13 | 43.05425 | -81.53118 | 39410 ft | 522 kts | 84° |
| 2026-04-11 06:13 | 43.05716 | -81.43199 | 39391 ft | 522 kts | 84° |
| 2026-04-11 06:14 | 43.05998 | -81.33280 | 39378 ft | 522 kts | 84° |
| 2026-04-11 06:14 | 43.06270 | -81.23429 | 39381 ft | 522 kts | 85° |
| 2026-04-11 06:15 | 43.06536 | -81.13507 | 39376 ft | 522 kts | 85° |
| 2026-04-11 06:15 | 43.06388 | -81.03564 | 39392 ft | 524 kts | 90° |
| 2026-04-11 06:16 | 43.05994 | -80.93599 | 39379 ft | 524 kts | 91° |
| 2026-04-11 06:16 | 43.05581 | -80.83655 | 39392 ft | 524 kts | 91° |
| 2026-04-11 06:17 | 43.05159 | -80.73712 | 39388 ft | 524 kts | 91° |
| 2026-04-11 06:17 | 43.04728 | -80.63772 | 39400 ft | 524 kts | 91° |
| 2026-04-11 06:18 | 43.04288 | -80.53813 | 39393 ft | 525 kts | 91° |
| 2026-04-11 06:18 | 43.03842 | -80.43931 | 39390 ft | 524 kts | 92° |
| 2026-04-11 06:19 | 43.03386 | -80.34000 | 39387 ft | 524 kts | 92° |
| 2026-04-11 06:19 | 43.02921 | -80.24068 | 39378 ft | 524 kts | 92° |
| 2026-04-11 06:20 | 43.02447 | -80.14127 | 39370 ft | 524 kts | 92° |
| 2026-04-11 06:20 | 43.01965 | -80.04208 | 39371 ft | 522 kts | 92° |
| 2026-04-11 06:21 | 43.01476 | -79.94304 | 39372 ft | 523 kts | 92° |
| 2026-04-11 06:21 | 43.00977 | -79.84397 | 39371 ft | 523 kts | 92° |
| 2026-04-11 06:22 | 43.00470 | -79.74489 | 39369 ft | 522 kts | 93° |
| 2026-04-11 06:22 | 42.99955 | -79.64588 | 39377 ft | 522 kts | 93° |
| 2026-04-11 06:23 | 42.99432 | -79.54696 | 39381 ft | 522 kts | 93° |
| 2026-04-11 06:23 | 42.98900 | -79.44805 | 39372 ft | 522 kts | 93° |
| 2026-04-11 06:24 | 42.98360 | -79.34923 | 39374 ft | 522 kts | 94° |
| 2026-04-11 06:24 | 42.97815 | -79.25100 | 39369 ft | 522 kts | 94° |
| 2026-04-11 06:25 | 42.97258 | -79.15223 | 39365 ft | 522 kts | 94° |
| 2026-04-11 06:25 | 42.96691 | -79.05275 | 39364 ft | 522 kts | 94° |
| 2026-04-11 06:26 | 42.96000 | -78.95425 | 39356 ft | 521 kts | 99° |
| 2026-04-11 06:26 | 42.94842 | -78.85726 | 39362 ft | 521 kts | 100° |
| 2026-04-11 06:27 | 42.93639 | -78.75971 | 39358 ft | 521 kts | 99° |
| 2026-04-11 06:27 | 42.93251 | -78.66110 | 39370 ft | 522 kts | 91° |
| 2026-04-11 06:28 | 42.93055 | -78.56206 | 39359 ft | 522 kts | 91° |
| 2026-04-11 06:28 | 42.92860 | -78.46300 | 39357 ft | 522 kts | 91° |
| 2026-04-11 06:29 | 42.92658 | -78.36390 | 39346 ft | 522 kts | 91° |
| 2026-04-11 06:29 | 42.92447 | -78.26484 | 39341 ft | 522 kts | 91° |
| 2026-04-11 06:30 | 42.92227 | -78.16584 | 39337 ft | 522 kts | 91° |
| 2026-04-11 06:30 | 42.91999 | -78.06676 | 39341 ft | 522 kts | 91° |
| 2026-04-11 06:31 | 42.91762 | -77.96775 | 39346 ft | 522 kts | 91° |
| 2026-04-11 06:31 | 42.91517 | -77.86861 | 39343 ft | 524 kts | 92° |
| 2026-04-11 06:32 | 42.91263 | -77.76926 | 39335 ft | 524 kts | 92° |
| 2026-04-11 06:32 | 42.90999 | -77.66981 | 39332 ft | 524 kts | 92° |
| 2026-04-11 06:33 | 42.90727 | -77.57046 | 39306 ft | 524 kts | 92° |
| 2026-04-11 06:33 | 42.90446 | -77.47104 | 39313 ft | 525 kts | 92° |
| 2026-04-11 06:34 | 42.90159 | -77.37230 | 39316 ft | 525 kts | 92° |
| 2026-04-11 06:34 | 42.89863 | -77.27287 | 39313 ft | 525 kts | 92° |
| 2026-04-11 06:35 | 42.89559 | -77.17347 | 39312 ft | 526 kts | 92° |
| 2026-04-11 06:35 | 42.89256 | -77.07373 | 39312 ft | 526 kts | 92° |
| 2026-04-11 06:36 | 42.88951 | -76.97400 | 39327 ft | 526 kts | 93° |
| 2026-04-11 06:36 | 42.88639 | -76.87436 | 39302 ft | 526 kts | 93° |
| 2026-04-11 06:37 | 42.88318 | -76.77470 | 39289 ft | 527 kts | 93° |
| 2026-04-11 06:37 | 42.87988 | -76.67486 | 39289 ft | 527 kts | 93° |
| 2026-04-11 06:38 | 42.87707 | -76.59195 | 39281 ft | 527 kts | 93° |
| 2026-04-11 06:38 | 42.87362 | -76.49219 | 39263 ft | 527 kts | 94° |
| 2026-04-11 06:38 | 42.87357 | -76.44238 | 39250 ft | 527 kts | 82° |
| 2026-04-11 06:39 | 42.88070 | -76.39369 | 39289 ft | 524 kts | 76° |
| 2026-04-11 06:39 | 42.89637 | -76.29622 | 39267 ft | 526 kts | 76° |
| 2026-04-11 06:40 | 42.91235 | -76.19870 | 39275 ft | 527 kts | 76° |
| 2026-04-11 06:40 | 42.92835 | -76.10124 | 39285 ft | 528 kts | 76° |
| 2026-04-11 06:41 | 42.94434 | -76.00329 | 39284 ft | 529 kts | 77° |
| 2026-04-11 06:41 | 42.96024 | -75.90529 | 39278 ft | 529 kts | 77° |
| 2026-04-11 06:42 | 42.97610 | -75.80712 | 39249 ft | 529 kts | 76° |
| 2026-04-11 06:42 | 42.99185 | -75.70894 | 39247 ft | 531 kts | 76° |
| 2026-04-11 06:43 | 43.00758 | -75.61028 | 39255 ft | 531 kts | 77° |
| 2026-04-11 06:43 | 43.02321 | -75.51169 | 39264 ft | 531 kts | 77° |
| 2026-04-11 06:44 | 43.03876 | -75.41303 | 39253 ft | 531 kts | 77° |
| 2026-04-11 06:44 | 43.05400 | -75.31451 | 39265 ft | 530 kts | 81° |
| 2026-04-11 06:44 | 43.05578 | -75.26445 | 39248 ft | 526 kts | 96° |
| 2026-04-11 06:45 | 43.05371 | -75.21515 | 39260 ft | 528 kts | 93° |
| 2026-04-11 06:45 | 43.05050 | -75.11472 | 39250 ft | 529 kts | 94° |
| 2026-04-11 06:46 | 43.04662 | -75.01427 | 39228 ft | 529 kts | 95° |
| 2026-04-11 06:46 | 43.04262 | -74.91410 | 39225 ft | 528 kts | 95° |
| 2026-04-11 06:47 | 43.03853 | -74.81394 | 39221 ft | 528 kts | 95° |
| 2026-04-11 06:47 | 43.03436 | -74.71381 | 39215 ft | 528 kts | 95° |
| 2026-04-11 06:48 | 43.03009 | -74.61358 | 39205 ft | 528 kts | 95° |
| 2026-04-11 06:48 | 43.02573 | -74.51342 | 39204 ft | 528 kts | 95° |
| 2026-04-11 06:49 | 43.02129 | -74.41328 | 39194 ft | 528 kts | 95° |
| 2026-04-11 06:49 | 43.01677 | -74.31328 | 39180 ft | 526 kts | 96° |
| 2026-04-11 06:50 | 43.01391 | -74.21354 | 39180 ft | 525 kts | 93° |
| 2026-04-11 06:50 | 43.01213 | -74.11385 | 39176 ft | 525 kts | 94° |
| 2026-04-11 06:51 | 43.01011 | -74.01417 | 39167 ft | 525 kts | 94° |
| 2026-04-11 06:51 | 43.00800 | -73.91445 | 39163 ft | 525 kts | 94° |
| 2026-04-11 06:52 | 43.00580 | -73.81471 | 39163 ft | 525 kts | 94° |
| 2026-04-11 06:52 | 43.00351 | -73.71493 | 39158 ft | 525 kts | 94° |
| 2026-04-11 06:53 | 43.00114 | -73.61528 | 39130 ft | 525 kts | 94° |
| 2026-04-11 06:53 | 42.99868 | -73.51565 | 39155 ft | 524 kts | 94° |
| 2026-04-11 06:54 | 42.99617 | -73.41686 | 38693 ft | 522 kts | 95° |
| 2026-04-11 06:54 | 42.99530 | -73.36700 | 37613 ft | 531 kts | 89° |
| 2026-04-11 06:54 | 43.00091 | -73.31674 | 36545 ft | 541 kts | 74° |
| 2026-04-11 06:54 | 43.01204 | -73.26731 | 35598 ft | 545 kts | 74° |
| 2026-04-11 06:55 | 43.02269 | -73.21799 | 35138 ft | 538 kts | 74° |
| 2026-04-11 06:55 | 43.03340 | -73.16934 | 34704 ft | 531 kts | 73° |
| 2026-04-11 06:55 | 43.04407 | -73.12120 | 34184 ft | 528 kts | 74° |
| 2026-04-11 06:55 | 43.05471 | -73.07327 | 33491 ft | 526 kts | 74° |
| 2026-04-11 06:56 | 43.06530 | -73.02541 | 32809 ft | 526 kts | 74° |
| 2026-04-11 06:56 | 43.07587 | -72.97760 | 32219 ft | 523 kts | 74° |
| 2026-04-11 06:56 | 43.08633 | -72.93018 | 31664 ft | 519 kts | 75° |
| 2026-04-11 06:56 | 43.09668 | -72.88315 | 31150 ft | 514 kts | 75° |
| 2026-04-11 06:57 | 43.10694 | -72.83640 | 30605 ft | 512 kts | 75° |
| 2026-04-11 06:57 | 43.11713 | -72.78986 | 30020 ft | 511 kts | 76° |
| 2026-04-11 06:57 | 43.12730 | -72.74326 | 29284 ft | 509 kts | 76° |
| 2026-04-11 06:57 | 43.13738 | -72.69711 | 28802 ft | 503 kts | 76° |
| 2026-04-11 06:58 | 43.14734 | -72.65139 | 28289 ft | 499 kts | 76° |
| 2026-04-11 06:58 | 43.15722 | -72.60596 | 27748 ft | 496 kts | 76° |
| 2026-04-11 06:58 | 43.16700 | -72.56082 | 27196 ft | 494 kts | 76° |
| 2026-04-11 06:58 | 43.17674 | -72.51577 | 26702 ft | 492 kts | 76° |
| 2026-04-11 06:59 | 43.18640 | -72.47098 | 26178 ft | 488 kts | 76° |
| 2026-04-11 06:59 | 43.19598 | -72.42655 | 25669 ft | 485 kts | 76° |
| 2026-04-11 06:59 | 43.20547 | -72.38236 | 25183 ft | 481 kts | 76° |
| 2026-04-11 06:59 | 43.21489 | -72.33845 | 24683 ft | 478 kts | 76° |
| 2026-04-11 07:00 | 43.22419 | -72.29494 | 24206 ft | 474 kts | 76° |
| 2026-04-11 07:00 | 43.23341 | -72.25161 | 23688 ft | 472 kts | 77° |
| 2026-04-11 07:00 | 43.24247 | -72.20905 | 23137 ft | 470 kts | 77° |
| 2026-04-11 07:00 | 43.25161 | -72.16619 | 22651 ft | 466 kts | 77° |
| 2026-04-11 07:01 | 43.26064 | -72.12369 | 22196 ft | 462 kts | 77° |
| 2026-04-11 07:01 | 43.26956 | -72.08156 | 21728 ft | 459 kts | 76° |
| 2026-04-11 07:01 | 43.27843 | -72.03964 | 21255 ft | 456 kts | 76° |
| 2026-04-11 07:01 | 43.28722 | -71.99801 | 20796 ft | 453 kts | 76° |
| 2026-04-11 07:02 | 43.29596 | -71.95655 | 20339 ft | 450 kts | 76° |
| 2026-04-11 07:02 | 43.30460 | -71.91543 | 19872 ft | 448 kts | 76° |
| 2026-04-11 07:02 | 43.31320 | -71.87439 | 19396 ft | 446 kts | 76° |
| 2026-04-11 07:02 | 43.32174 | -71.83359 | 18956 ft | 443 kts | 76° |
| 2026-04-11 07:03 | 43.33021 | -71.79303 | 18498 ft | 441 kts | 76° |
| 2026-04-11 07:03 | 43.33863 | -71.75264 | 17993 ft | 439 kts | 75° |
| 2026-04-11 07:03 | 43.34699 | -71.71245 | 17511 ft | 436 kts | 75° |
| 2026-04-11 07:03 | 43.35527 | -71.67258 | 17057 ft | 433 kts | 75° |
| 2026-04-11 07:04 | 43.36348 | -71.63293 | 16612 ft | 430 kts | 75° |
| 2026-04-11 07:04 | 43.37163 | -71.59354 | 16166 ft | 427 kts | 75° |
| 2026-04-11 07:04 | 43.37971 | -71.55442 | 15703 ft | 424 kts | 75° |
| 2026-04-11 07:04 | 43.38763 | -71.51600 | 15294 ft | 409 kts | 76° |
| 2026-04-11 07:05 | 43.39523 | -71.47905 | 14893 ft | 396 kts | 75° |
| 2026-04-11 07:05 | 43.40259 | -71.44316 | 14489 ft | 384 kts | 75° |
| 2026-04-11 07:05 | 43.40973 | -71.40832 | 14079 ft | 374 kts | 75° |
| 2026-04-11 07:05 | 43.41672 | -71.37419 | 13675 ft | 370 kts | 75° |
| 2026-04-11 07:06 | 43.42366 | -71.34015 | 13240 ft | 369 kts | 75° |
| 2026-04-11 07:06 | 43.43059 | -71.30627 | 12858 ft | 367 kts | 75° |
| 2026-04-11 07:06 | 43.43747 | -71.27249 | 12484 ft | 366 kts | 75° |
| 2026-04-11 07:06 | 43.44431 | -71.23890 | 12082 ft | 364 kts | 75° |
| 2026-04-11 07:07 | 43.45111 | -71.20541 | 11697 ft | 362 kts | 75° |
| 2026-04-11 07:07 | 43.45787 | -71.17209 | 11314 ft | 361 kts | 75° |
| 2026-04-11 07:07 | 43.46484 | -71.13899 | 10963 ft | 359 kts | 70° |
| 2026-04-11 07:07 | 43.47352 | -71.10727 | 10567 ft | 358 kts | 68° |
| 2026-04-11 07:08 | 43.48220 | -71.07558 | 10157 ft | 349 kts | 68° |
| 2026-04-11 07:08 | 43.49051 | -71.04476 | 9767 ft | 339 kts | 69° |
| 2026-04-11 07:08 | 43.49854 | -71.01476 | 9359 ft | 329 kts | 68° |
| 2026-04-11 07:08 | 43.50629 | -70.98563 | 8981 ft | 320 kts | 68° |
| 2026-04-11 07:09 | 43.51381 | -70.95728 | 8634 ft | 311 kts | 68° |
| 2026-04-11 07:09 | 43.52112 | -70.92970 | 8285 ft | 303 kts | 69° |
| 2026-04-11 07:09 | 43.52823 | -70.90280 | 7934 ft | 294 kts | 68° |
| 2026-04-11 07:09 | 43.53515 | -70.87666 | 7616 ft | 286 kts | 68° |
| 2026-04-11 07:10 | 43.55175 | -70.82912 | 7029 ft | 267 kts | 57° |
| 2026-04-11 07:10 | 43.56079 | -70.80683 | 6750 ft | 266 kts | 58° |
| 2026-04-11 07:10 | 43.56971 | -70.78447 | 6429 ft | 267 kts | 58° |
| 2026-04-11 07:11 | 43.57857 | -70.76197 | 6068 ft | 265 kts | 58° |
| 2026-04-11 07:11 | 43.58722 | -70.73981 | 5739 ft | 259 kts | 58° |
| 2026-04-11 07:11 | 43.59561 | -70.71819 | 5414 ft | 253 kts | 58° |
| 2026-04-11 07:11 | 43.60385 | -70.69693 | 5135 ft | 251 kts | 58° |
| 2026-04-11 07:12 | 43.61205 | -70.67568 | 4885 ft | 251 kts | 58° |
| 2026-04-11 07:12 | 43.62024 | -70.65444 | 4601 ft | 250 kts | 58° |
| 2026-04-11 07:12 | 43.62836 | -70.63342 | 4269 ft | 247 kts | 57° |
| 2026-04-11 07:12 | 43.63582 | -70.61224 | 3910 ft | 244 kts | 62° |
| 2026-04-11 07:13 | 43.64263 | -70.59104 | 3591 ft | 238 kts | 61° |
| 2026-04-11 07:13 | 43.64927 | -70.57058 | 3355 ft | 229 kts | 60° |
| 2026-04-11 07:13 | 43.65554 | -70.55130 | 3204 ft | 211 kts | 61° |
| 2026-04-11 07:13 | 43.65925 | -70.53192 | 2974 ft | 210 kts | 81° |
| 2026-04-11 07:14 | 43.65906 | -70.51183 | 2729 ft | 209 kts | 92° |
| 2026-04-11 07:14 | 43.65737 | -70.49193 | 2472 ft | 207 kts | 95° |
| 2026-04-11 07:14 | 43.65583 | -70.47297 | 2221 ft | 188 kts | 94° |
| 2026-04-11 07:14 | 43.65462 | -70.45590 | 1993 ft | 173 kts | 94° |
| 2026-04-11 07:15 | 43.65349 | -70.43943 | 1768 ft | 171 kts | 94° |
| 2026-04-11 07:15 | 43.65239 | -70.42329 | 1529 ft | 167 kts | 94° |
| 2026-04-11 07:15 | 43.65134 | -70.40744 | 1301 ft | 164 kts | 94° |
| 2026-04-11 07:15 | 43.65031 | -70.39208 | 1075 ft | 158 kts | 94° |
| 2026-04-11 07:16 | 43.64929 | -70.37727 | 858 ft | 151 kts | 92° |
| 2026-04-11 07:16 | 43.64835 | -70.36324 | 655 ft | 143 kts | 92° |
| 2026-04-11 07:16 | 43.64744 | -70.34984 | 469 ft | 137 kts | 94° |
| 2026-04-11 07:16 | 43.64654 | -70.33673 | 273 ft | 138 kts | 92° |
| 2026-04-11 07:17 | 43.64569 | -70.32347 | 107 ft | 139 kts | 92° |
| 2026-04-11 07:17 | 43.64487 | -70.31132 | 62 ft | 112 kts | 96° |
| 2026-04-11 07:17 | 43.64441 | -70.30453 | 61 ft | 44 kts | 95° |
| 2026-04-11 07:17 | 43.64464 | -70.30315 | 57 ft | 8 kts | 353° |
| 2026-04-11 07:18 | 43.64533 | -70.30353 | 54 ft | 17 kts | 336° |
| 2026-04-11 07:18 | 43.64555 | -70.30510 | 62 ft | 18 kts | 274° |
| 2026-04-11 07:18 | 43.64567 | -70.30675 | 67 ft | 17 kts | 274° |
| 2026-04-11 07:18 | 43.64577 | -70.30831 | 64 ft | 13 kts | 275° |
| 2026-04-11 07:19 | 43.64594 | -70.30881 | 62 ft | 5 kts | 342° |
| 2026-04-11 07:19 | 43.64635 | -70.30890 | 64 ft | 6 kts | 353° |
| 2026-04-11 07:19 | 43.64657 | -70.30894 | 63 ft | 0 kts | 352° |
| 2026-04-11 07:19 | 43.64659 | -70.30894 | 63 ft | 0 kts | 352° |